Terminal Aerodrome Forecast
Issued by NWS

Home | Current Version | Previous Version | Graphics & Text | Print | Product List | Glossary On
Versions: 1 2 3 4 5 6 7 8 9 10 11 12 13 14 15 16 17 18 19 20
000
FTUS41 KCLE 191500 AAB
TAFFDY
TAF AMD
KFDY 191503Z 1915/2012 17015G22KT P6SM BKN040 OVC060
     FM191600 16015G22KT 6SM -SN SCT020 OVC035
      TEMPO 1916/1920 3SM -SN BR OVC020
     FM192000 23015G25KT 6SM -SN OVC015
     FM200000 25014G22KT P6SM OVC025=

USA.gov is the U.S. government's official web portal to all federal, state and local government web resources and services.